Time;durP1;ratioP1;P1;durP2;ratioP2;P2;SDS_P1;SDS_P2;PMS_P1;PMS_P2;Temp;Humidity;BMP_temperature;BMP_pressure;BME280_temperature;BME280_humidity;BME280_pressure;Samples;Min_cycle;Max_cycle;Signal;HPM_P1;HPM_P2
2021/07/19 00:01:22;;;;;;;12.35;5.65;;;16.80;88.40;;;;;;4988349;28;20041;-61
2021/07/19 00:03:48;;;;;;;11.85;6.03;;;16.80;88.70;;;;;;4999330;28;20033;-61
2021/07/19 00:06:13;;;;;;;13.15;5.95;;;16.80;88.70;;;;;;5008541;28;20049;-61
2021/07/19 00:08:39;;;;;;;8.10;5.57;;;16.70;89.10;;;;;;4996299;28;20647;-61
2021/07/19 00:11:05;;;;;;;16.42;5.07;;;16.70;89.10;;;;;;4988899;28;20689;-61
2021/07/19 00:13:31;;;;;;;11.73;5.93;;;16.70;89.80;;;;;;4988007;28;20023;-62
2021/07/19 00:15:58;;;;;;;10.50;4.65;;;16.70;89.50;;;;;;4989028;28;20045;-61
2021/07/19 00:18:24;;;;;;;9.15;5.22;;;16.80;89.30;;;;;;5000351;28;20491;-61
2021/07/19 00:20:49;;;;;;;10.30;5.05;;;16.80;89.30;;;;;;5000298;28;20498;-61
2021/07/19 00:23:15;;;;;;;8.65;4.75;;;16.80;89.30;;;;;;5001077;28;20030;-61
2021/07/19 00:25:41;;;;;;;8.68;5.97;;;16.80;89.00;;;;;;4988476;28;20030;-61
2021/07/19 00:28:06;;;;;;;9.73;5.45;;;16.80;89.00;;;;;;4987843;28;20045;-61
2021/07/19 00:30:36;;;;;;;11.43;5.72;;;16.70;89.10;;;;;;4988031;28;20085;-61
2021/07/19 00:33:03;;;;;;;11.10;5.90;;;16.70;89.20;;;;;;5002276;28;20050;-61
2021/07/19 00:35:28;;;;;;;11.65;6.00;;;16.90;89.20;;;;;;4992153;28;20073;-61
2021/07/19 00:37:54;;;;;;;8.38;5.30;;;17.00;88.90;;;;;;5004617;28;20066;-61
2021/07/19 00:40:23;;;;;;;9.48;6.35;;;17.10;88.00;;;;;;4987820;28;20026;-62
2021/07/19 00:42:50;;;;;;;12.38;6.10;;;17.10;88.20;;;;;;4987640;28;20160;-62
2021/07/19 00:45:24;;;;;;;12.43;6.80;;;17.10;88.10;;;;;;4997912;28;20974;-62
2021/07/19 00:47:50;;;;;;;9.30;6.15;;;17.20;88.20;;;;;;4994158;28;20121;-62
2021/07/19 00:50:16;;;;;;;12.23;6.25;;;17.20;88.10;;;;;;5002759;28;20038;-62
2021/07/19 00:52:42;;;;;;;9.63;5.30;;;17.40;87.40;;;;;;5005572;28;20026;-62
2021/07/19 00:55:10;;;;;;;8.90;6.45;;;17.40;87.70;;;;;;4989537;28;20050;-62
2021/07/19 00:57:38;;;;;;;10.05;6.63;;;17.40;87.30;;;;;;5006135;28;20026;-62
2021/07/19 01:00:08;;;;;;;10.50;6.13;;;17.40;87.30;;;;;;4987134;28;20035;-62
2021/07/19 01:02:38;;;;;;;11.35;5.28;;;17.50;87.20;;;;;;4995754;28;20029;-62
2021/07/19 01:05:07;;;;;;;11.60;6.00;;;17.50;86.80;;;;;;5043295;23;20132;-80
2021/07/19 01:07:35;;;;;;;13.07;6.90;;;17.60;86.70;;;;;;5015386;28;20547;-80
2021/07/19 01:10:01;;;;;;;9.45;6.78;;;17.60;86.70;;;;;;5000036;28;20022;-80
2021/07/19 01:12:27;;;;;;;10.85;5.63;;;17.60;86.70;;;;;;4998060;28;20612;-80
2021/07/19 01:14:59;;;;;;;12.93;5.93;;;17.70;86.50;;;;;;5000222;28;20398;-80
2021/07/19 01:17:24;;;;;;;8.48;5.95;;;17.80;85.90;;;;;;4998765;28;20025;-80
2021/07/19 01:19:53;;;;;;;9.82;5.88;;;17.70;85.90;;;;;;4999626;28;20025;-80
2021/07/19 01:22:43;;;;;;;11.57;6.05;;;17.70;86.10;;;;;;5000331;28;20477;-80
2021/07/19 01:25:48;;;;;;;8.88;5.45;;;17.70;86.10;;;;;;5001073;28;20105;-80
2021/07/19 01:28:35;;;;;;;10.95;5.45;;;17.50;85.80;;;;;;4978702;28;20083;-80
2021/07/19 01:31:06;;;;;;;13.85;5.35;;;17.40;86.20;;;;;;5000234;28;20531;-80
2021/07/19 01:33:34;;;;;;;9.63;5.65;;;17.30;86.40;;;;;;4998938;28;20481;-80
2021/07/19 01:36:00;;;;;;;9.38;6.25;;;17.10;86.70;;;;;;4998017;28;20031;-80
2021/07/19 01:38:27;;;;;;;12.07;5.97;;;17.00;87.10;;;;;;4998786;28;20031;-80
2021/07/19 01:40:54;;;;;;;10.43;5.50;;;17.00;87.40;;;;;;4999168;28;20057;-80
2021/07/19 01:43:21;;;;;;;11.20;6.75;;;17.10;87.40;;;;;;4998693;28;20029;-80
2021/07/19 01:45:48;;;;;;;12.25;5.43;;;17.10;87.40;;;;;;5000567;28;20037;-80
2021/07/19 01:48:14;;;;;;;9.98;5.82;;;17.00;87.40;;;;;;5003482;28;20068;-80
2021/07/19 01:50:40;;;;;;;9.60;5.35;;;17.00;87.60;;;;;;5003359;28;20027;-80
2021/07/19 01:53:07;;;;;;;12.85;5.32;;;16.90;87.70;;;;;;5004141;28;20026;-80
2021/07/19 01:55:33;;;;;;;13.70;6.50;;;16.90;87.80;;;;;;5003110;28;20026;-80
2021/07/19 01:58:00;;;;;;;12.15;5.45;;;16.90;88.10;;;;;;5004052;28;20046;-79
2021/07/19 02:00:27;;;;;;;9.13;4.97;;;16.90;88.10;;;;;;5003318;28;20715;-80
2021/07/19 02:02:53;;;;;;;13.90;5.88;;;16.80;88.40;;;;;;5004581;28;20019;-80
2021/07/19 02:05:20;;;;;;;11.07;6.32;;;16.80;88.40;;;;;;5017715;28;20037;-80
2021/07/19 02:07:54;;;;;;;12.13;6.07;;;16.80;88.60;;;;;;5001049;28;20033;-80
2021/07/19 02:10:20;;;;;;;12.35;5.90;;;16.80;88.90;;;;;;5003933;28;20029;-79
2021/07/19 02:12:47;;;;;;;8.63;5.00;;;16.70;89.00;;;;;;5002884;28;20026;-80
2021/07/19 02:15:14;;;;;;;10.60;4.85;;;16.70;89.10;;;;;;5004839;28;20037;-79
2021/07/19 02:17:45;;;;;;;14.50;5.97;;;16.70;89.80;;;;;;5002333;28;20033;-80
2021/07/19 02:20:12;;;;;;;10.15;5.78;;;16.70;90.00;;;;;;5004906;28;20157;-79
2021/07/19 02:22:43;;;;;;;11.23;6.30;;;16.70;90.00;;;;;;5002010;28;20065;-79
2021/07/19 02:25:10;;;;;;;10.20;5.10;;;16.60;90.10;;;;;;5017371;28;20030;-80
2021/07/19 02:27:42;;;;;;;12.77;6.32;;;16.60;90.10;;;;;;5003046;28;20022;-80
2021/07/19 02:30:09;;;;;;;13.55;5.00;;;16.60;90.20;;;;;;5001749;28;20029;-80
2021/07/19 02:32:48;;;;;;;9.20;4.75;;;16.60;90.20;;;;;;5003243;28;20034;-79
2021/07/19 02:35:16;;;;;;;16.13;5.07;;;16.60;90.30;;;;;;5004496;28;20151;-79
2021/07/19 02:37:42;;;;;;;15.65;6.22;;;16.60;90.30;;;;;;5001434;28;20037;-79
2021/07/19 02:40:11;;;;;;;14.32;6.22;;;16.60;90.40;;;;;;5003752;28;20079;-80
2021/07/19 02:42:39;;;;;;;12.48;5.07;;;16.60;90.50;;;;;;5001841;28;20026;-80
2021/07/19 02:45:06;;;;;;;14.10;5.40;;;16.60;90.40;;;;;;5003183;28;20034;-79
2021/07/19 02:47:33;;;;;;;13.95;5.75;;;16.50;90.50;;;;;;5000389;28;20037;-80
2021/07/19 02:50:00;;;;;;;13.45;5.07;;;16.40;90.50;;;;;;5002919;28;20030;-80
2021/07/19 02:52:25;;;;;;;12.55;4.93;;;16.40;90.60;;;;;;5003148;28;20024;-79
2021/07/19 02:54:53;;;;;;;13.27;5.82;;;16.40;90.70;;;;;;5002252;28;20112;-79
2021/07/19 02:57:18;;;;;;;15.18;5.55;;;16.40;90.70;;;;;;5004012;28;20499;-79
2021/07/19 02:59:44;;;;;;;16.15;6.15;;;16.50;90.70;;;;;;5003632;28;20037;-79
2021/07/19 03:02:11;;;;;;;10.85;4.72;;;16.40;90.60;;;;;;5017997;28;20030;-79
2021/07/19 03:04:38;;;;;;;13.38;4.30;;;16.40;90.70;;;;;;5003078;28;20101;-79
2021/07/19 03:07:06;;;;;;;11.35;5.50;;;16.40;90.80;;;;;;5004376;28;20413;-79
2021/07/19 03:09:37;;;;;;;19.02;4.32;;;16.40;90.90;;;;;;5001521;28;20037;-79
2021/07/19 03:12:05;;;;;;;10.98;5.22;;;16.30;90.90;;;;;;5002275;28;20030;-79
2021/07/19 03:14:34;;;;;;;13.70;5.07;;;16.30;91.10;;;;;;5003155;28;20026;-79
2021/07/19 03:17:01;;;;;;;12.23;4.53;;;16.40;90.90;;;;;;5003158;28;20030;-79
2021/07/19 03:19:28;;;;;;;14.63;4.97;;;16.40;90.60;;;;;;5003044;28;20366;-79
2021/07/19 03:21:58;;;;;;;13.23;6.00;;;16.40;90.10;;;;;;5002826;28;20029;-79
2021/07/19 03:24:25;;;;;;;11.77;4.68;;;16.40;90.00;;;;;;5001912;28;20076;-79
2021/07/19 03:26:51;;;;;;;9.27;4.57;;;16.40;89.60;;;;;;5000939;28;20477;-80
2021/07/19 03:29:18;;;;;;;15.90;3.88;;;16.40;88.00;;;;;;5002663;28;20034;-79
2021/07/19 03:31:44;;;;;;;10.85;4.13;;;16.30;88.30;;;;;;5001346;28;20030;-80
2021/07/19 03:34:12;;;;;;;12.00;4.78;;;16.30;87.30;;;;;;5001558;28;20030;-79
2021/07/19 03:36:37;;;;;;;10.13;3.67;;;16.30;87.60;;;;;;5002598;28;20669;-80
2021/07/19 03:39:05;;;;;;;10.32;4.15;;;16.30;87.20;;;;;;5000786;28;20053;-79
2021/07/19 03:41:31;;;;;;;8.35;4.28;;;16.30;87.40;;;;;;5001500;28;20105;-79
2021/07/19 03:43:58;;;;;;;9.98;3.70;;;16.30;86.80;;;;;;5002765;28;20033;-79
2021/07/19 03:46:24;;;;;;;15.43;4.18;;;16.30;87.00;;;;;;5001709;28;20029;-79
2021/07/19 03:48:50;;;;;;;8.88;3.78;;;16.30;85.90;;;;;;5000279;28;20026;-79
2021/07/19 03:51:17;;;;;;;13.63;4.80;;;16.30;86.20;;;;;;5005942;28;20029;-79
2021/07/19 03:53:43;;;;;;;11.18;3.80;;;16.30;86.40;;;;;;5001775;28;20079;-80
2021/07/19 03:56:09;;;;;;;9.20;3.45;;;16.20;86.00;;;;;;5000091;28;20034;-79
2021/07/19 03:58:36;;;;;;;9.80;3.15;;;16.20;86.10;;;;;;5003111;28;20029;-80
2021/07/19 04:01:03;;;;;;;6.75;3.45;;;16.30;86.50;;;;;;5001245;28;20485;-80
2021/07/19 04:03:33;;;;;;;11.43;3.58;;;16.30;86.10;;;;;;5002836;28;20030;-80
2021/07/19 04:06:01;;;;;;;7.30;3.47;;;16.30;86.20;;;;;;5002243;28;20037;-80
2021/07/19 04:08:31;;;;;;;9.70;3.95;;;16.30;86.10;;;;;;5001398;28;20042;-79
2021/07/19 04:11:01;;;;;;;9.10;3.92;;;16.30;85.90;;;;;;5001814;28;20038;-80
2021/07/19 04:13:29;;;;;;;11.95;4.07;;;16.30;85.80;;;;;;5001881;28;20040;-79
2021/07/19 04:15:56;;;;;;;12.00;4.10;;;16.30;85.40;;;;;;5002406;28;20034;-79
2021/07/19 04:18:22;;;;;;;12.43;4.03;;;16.30;85.70;;;;;;5003225;28;20040;-79
2021/07/19 04:20:56;;;;;;;9.80;4.00;;;16.20;85.60;;;;;;5003493;28;20018;-79
2021/07/19 04:23:22;;;;;;;10.88;4.43;;;16.20;85.80;;;;;;5003085;28;20382;-79
2021/07/19 04:25:49;;;;;;;8.52;3.72;;;16.20;85.90;;;;;;5001242;28;20032;-78
2021/07/19 04:28:18;;;;;;;6.63;3.47;;;16.20;85.60;;;;;;4999134;28;20113;-79
2021/07/19 04:30:46;;;;;;;9.45;3.55;;;16.20;85.40;;;;;;5015703;28;20477;-79
2021/07/19 04:33:24;;;;;;;11.30;4.18;;;16.30;85.20;;;;;;5000761;28;20260;-79
2021/07/19 04:35:50;;;;;;;8.73;3.45;;;16.20;84.40;;;;;;5000196;28;20038;-82
2021/07/19 04:38:18;;;;;;;12.32;3.28;;;16.20;83.10;;;;;;4998180;28;20026;-80
2021/07/19 04:40:48;;;;;;;10.85;2.97;;;16.20;82.30;;;;;;4999517;28;20128;-79
2021/07/19 04:43:17;;;;;;;5.95;2.47;;;16.20;82.50;;;;;;5000576;28;20180;-79
2021/07/19 04:45:48;;;;;;;6.25;3.15;;;16.30;81.10;;;;;;4998754;28;20040;-81
2021/07/19 04:48:14;;;;;;;8.98;3.53;;;16.30;81.30;;;;;;4999867;28;20035;-80
2021/07/19 04:50:41;;;;;;;6.22;3.58;;;16.30;81.10;;;;;;4998879;28;20508;-80
2021/07/19 04:53:09;;;;;;;4.75;2.20;;;16.20;81.60;;;;;;4998481;28;20425;-80
2021/07/19 04:55:37;;;;;;;7.68;3.47;;;16.20;81.90;;;;;;5000137;28;20389;-80
2021/07/19 04:58:04;;;;;;;13.85;3.85;;;16.30;81.50;;;;;;4999866;28;20030;-81
2021/07/19 05:00:32;;;;;;;9.25;3.15;;;16.20;81.30;;;;;;4999518;28;20322;-81
2021/07/19 05:03:01;;;;;;;7.75;3.30;;;16.20;81.50;;;;;;4999761;28;20030;-81
2021/07/19 05:05:27;;;;;;;10.38;3.47;;;16.30;81.60;;;;;;5000145;28;20042;-81
2021/07/19 05:07:55;;;;;;;15.30;3.00;;;16.20;81.30;;;;;;5015041;28;20026;-81
2021/07/19 05:10:23;;;;;;;11.02;3.10;;;16.30;81.60;;;;;;4999982;28;20061;-80
2021/07/19 05:12:52;;;;;;;11.15;2.80;;;16.30;81.80;;;;;;5015629;28;20511;-81
2021/07/19 05:15:18;;;;;;;7.15;2.75;;;16.30;81.40;;;;;;4998901;28;20033;-81
2021/07/19 05:17:44;;;;;;;11.07;2.20;;;16.30;81.50;;;;;;4999543;28;20022;-82
2021/07/19 05:20:16;;;;;;;10.07;2.55;;;16.30;80.80;;;;;;4997841;28;20080;-81
2021/07/19 05:22:52;;;;;;;11.48;4.00;;;16.30;80.80;;;;;;4999774;28;20547;-81
2021/07/19 05:25:26;;;;;;;10.20;3.33;;;16.30;80.80;;;;;;5000038;28;20391;-82
2021/07/19 05:27:58;;;;;;;6.78;2.95;;;16.20;80.80;;;;;;5001653;28;20032;-80
2021/07/19 05:30:27;;;;;;;5.13;3.05;;;16.30;81.00;;;;;;5001264;28;20057;-80
2021/07/19 05:32:52;;;;;;;9.70;3.15;;;16.30;81.10;;;;;;5000293;28;20054;-80
2021/07/19 05:35:19;;;;;;;13.65;3.83;;;16.30;80.60;;;;;;5001557;28;20054;-81
2021/07/19 05:37:46;;;;;;;10.82;2.90;;;16.30;80.60;;;;;;5001354;28;20528;-80
2021/07/19 05:40:12;;;;;;;8.15;2.50;;;16.40;80.60;;;;;;5002234;28;20258;-81
2021/07/19 05:42:39;;;;;;;6.18;2.88;;;16.40;80.60;;;;;;5000826;28;20030;-81
2021/07/19 05:45:06;;;;;;;13.13;4.10;;;16.40;80.40;;;;;;5002506;28;20033;-80
2021/07/19 05:47:32;;;;;;;11.82;3.17;;;16.40;80.50;;;;;;5002087;28;20030;-80
2021/07/19 05:49:58;;;;;;;10.98;2.25;;;16.50;79.70;;;;;;5002206;28;20018;-80
2021/07/19 05:52:24;;;;;;;7.70;2.75;;;16.50;78.50;;;;;;5016878;28;20456;-80
2021/07/19 05:54:49;;;;;;;10.70;2.90;;;16.40;78.80;;;;;;5003016;28;20039;-81
2021/07/19 05:57:15;;;;;;;8.40;3.42;;;16.40;79.30;;;;;;5003227;28;20132;-80
2021/07/19 05:59:40;;;;;;;10.77;2.45;;;16.40;79.70;;;;;;5001926;28;20037;-80
2021/07/19 06:02:06;;;;;;;8.98;2.78;;;16.40;79.50;;;;;;5002467;28;20385;-80
2021/07/19 06:04:32;;;;;;;8.65;3.20;;;16.50;79.90;;;;;;5000527;28;20038;-80
2021/07/19 06:06:57;;;;;;;12.50;4.13;;;16.50;79.80;;;;;;5002653;28;20481;-80
2021/07/19 06:09:23;;;;;;;10.50;3.58;;;16.50;79.80;;;;;;5004460;28;20034;-80
2021/07/19 06:11:48;;;;;;;11.10;3.58;;;16.50;80.10;;;;;;5003205;28;20030;-80
2021/07/19 06:14:14;;;;;;;8.82;3.13;;;16.50;80.10;;;;;;5004694;28;20528;-80
2021/07/19 06:16:39;;;;;;;8.55;2.60;;;16.50;79.80;;;;;;5003449;28;20129;-80
2021/07/19 06:19:05;;;;;;;6.50;2.95;;;16.60;80.10;;;;;;5002724;28;20050;-80
2021/07/19 06:21:30;;;;;;;6.22;2.97;;;16.60;80.00;;;;;;5001895;28;20034;-81
2021/07/19 06:23:56;;;;;;;8.20;3.05;;;16.70;79.90;;;;;;5001021;28;20027;-80
2021/07/19 06:26:21;;;;;;;7.40;2.60;;;16.60;80.00;;;;;;5002700;28;20038;-80
2021/07/19 06:28:47;;;;;;;5.53;2.67;;;16.70;79.80;;;;;;5000923;28;20036;-79
2021/07/19 06:31:13;;;;;;;7.60;2.53;;;16.70;79.80;;;;;;5013085;28;20034;-77
2021/07/19 06:33:38;;;;;;;9.10;2.63;;;16.70;79.80;;;;;;5000548;28;20389;-77
2021/07/19 06:36:04;;;;;;;5.47;2.58;;;16.70;79.80;;;;;;5002314;28;20493;-77
2021/07/19 06:38:29;;;;;;;9.05;3.13;;;16.70;79.60;;;;;;5002134;28;20029;-76
2021/07/19 06:40:55;;;;;;;6.85;2.28;;;16.70;79.40;;;;;;5001783;28;20030;-77
2021/07/19 06:43:21;;;;;;;9.80;2.65;;;16.70;79.40;;;;;;5001675;28;20036;-78
2021/07/19 06:45:47;;;;;;;13.90;3.20;;;16.80;79.50;;;;;;5002727;28;20084;-79
2021/07/19 06:48:14;;;;;;;6.93;2.85;;;16.80;79.20;;;;;;5002506;28;20117;-80
2021/07/19 06:50:40;;;;;;;4.65;2.08;;;16.80;78.90;;;;;;5001576;28;20030;-81
2021/07/19 06:53:06;;;;;;;18.40;3.20;;;16.90;78.90;;;;;;5002568;28;20815;-82
2021/07/19 06:55:32;;;;;;;11.10;3.13;;;16.90;79.10;;;;;;5003283;28;20125;-83
2021/07/19 06:57:58;;;;;;;9.05;4.30;;;16.90;78.30;;;;;;5003644;28;20487;-82
2021/07/19 07:00:23;;;;;;;5.80;2.60;;;16.90;78.60;;;;;;5022183;28;20037;-77
2021/07/19 07:02:49;;;;;;;13.02;2.45;;;16.90;78.90;;;;;;5019725;28;20026;-77
2021/07/19 07:05:15;;;;;;;9.57;3.53;;;16.90;78.10;;;;;;5003676;28;20034;-72
2021/07/19 07:07:40;;;;;;;5.47;2.85;;;17.00;78.30;;;;;;5008208;28;20033;-72
2021/07/19 07:10:06;;;;;;;5.00;2.50;;;17.00;78.60;;;;;;5017147;28;20060;-73
2021/07/19 07:12:32;;;;;;;8.82;2.55;;;17.00;78.70;;;;;;5017144;28;20034;-72
2021/07/19 07:14:58;;;;;;;8.32;2.80;;;17.00;78.80;;;;;;5002792;28;20089;-71
2021/07/19 07:17:23;;;;;;;7.40;3.63;;;17.00;78.80;;;;;;5003345;28;20034;-71
2021/07/19 07:19:51;;;;;;;5.95;2.47;;;17.10;79.30;;;;;;5002205;28;20037;-72
2021/07/19 07:22:16;;;;;;;6.75;3.15;;;17.10;79.30;;;;;;5002325;28;20035;-71
2021/07/19 07:24:42;;;;;;;6.30;2.75;;;17.20;79.00;;;;;;5008166;28;20965;-71
2021/07/19 07:27:09;;;;;;;6.72;2.60;;;17.20;78.90;;;;;;5001704;28;20349;-71
2021/07/19 07:29:35;;;;;;;6.90;2.58;;;17.20;78.70;;;;;;5000700;28;20029;-72
2021/07/19 07:32:00;;;;;;;9.80;2.40;;;17.30;78.70;;;;;;5001449;28;20530;-72
2021/07/19 07:34:26;;;;;;;12.30;3.10;;;17.30;78.70;;;;;;5001298;28;20030;-71
2021/07/19 07:36:52;;;;;;;3.83;2.03;;;17.30;78.90;;;;;;4999399;28;20033;-71
2021/07/19 07:39:17;;;;;;;8.80;2.78;;;17.30;78.60;;;;;;5001229;28;20030;-70
2021/07/19 07:41:43;;;;;;;9.68;2.80;;;17.30;79.00;;;;;;5001486;28;20494;-71
2021/07/19 07:44:10;;;;;;;9.68;2.38;;;17.30;79.00;;;;;;5000847;28;20096;-70
2021/07/19 07:46:36;;;;;;;5.88;2.17;;;17.40;78.90;;;;;;4998503;28;20030;-71
2021/07/19 07:49:01;;;;;;;6.00;1.88;;;17.40;78.30;;;;;;4999476;28;20038;-70
2021/07/19 07:51:27;;;;;;;9.02;2.65;;;17.40;78.10;;;;;;5001762;28;20031;-71
2021/07/19 07:53:52;;;;;;;9.43;2.97;;;17.50;78.00;;;;;;5003299;28;20128;-71
2021/07/19 07:56:18;;;;;;;8.07;2.92;;;17.60;77.50;;;;;;5004888;28;20044;-72
2021/07/19 07:58:43;;;;;;;7.78;2.25;;;17.60;77.60;;;;;;5000389;28;20456;-72
2021/07/19 08:01:09;;;;;;;8.20;2.92;;;17.70;77.60;;;;;;5000624;28;20033;-72
2021/07/19 08:03:34;;;;;;;6.90;2.53;;;17.80;77.10;;;;;;5001031;28;20068;-71
2021/07/19 08:06:00;;;;;;;8.45;2.40;;;17.80;76.70;;;;;;5002051;28;20042;-71
2021/07/19 08:08:25;;;;;;;10.60;3.40;;;17.80;76.80;;;;;;5002315;28;20049;-71
2021/07/19 08:10:51;;;;;;;11.93;3.38;;;17.90;77.30;;;;;;5001266;28;20038;-70
2021/07/19 08:13:16;;;;;;;8.70;2.28;;;18.00;76.90;;;;;;5002225;28;20049;-71
2021/07/19 08:15:47;;;;;;;12.48;3.72;;;18.00;76.50;;;;;;5015305;28;20031;-71
2021/07/19 08:18:12;;;;;;;8.43;3.22;;;18.10;76.20;;;;;;5000335;28;20092;-72
2021/07/19 08:20:38;;;;;;;6.03;2.13;;;18.10;75.90;;;;;;4999567;28;20474;-71
2021/07/19 08:23:04;;;;;;;7.28;2.47;;;18.10;76.30;;;;;;5000728;28;20742;-71
2021/07/19 08:25:29;;;;;;;10.98;2.88;;;18.40;76.20;;;;;;5001350;28;20410;-71
2021/07/19 08:27:55;;;;;;;6.85;2.55;;;18.60;75.30;;;;;;5017301;28;20042;-70
2021/07/19 08:30:21;;;;;;;8.23;2.50;;;18.80;74.10;;;;;;5000298;28;20085;-70
2021/07/19 08:32:47;;;;;;;6.10;1.92;;;18.80;72.10;;;;;;4999243;28;20115;-71
2021/07/19 08:35:13;;;;;;;6.82;2.25;;;18.80;69.60;;;;;;5001765;28;20501;-73
2021/07/19 08:37:41;;;;;;;5.72;2.08;;;18.80;69.80;;;;;;4999778;28;20046;-72
2021/07/19 08:40:09;;;;;;;4.13;1.60;;;18.70;69.90;;;;;;4999142;28;20029;-71
2021/07/19 08:42:37;;;;;;;5.65;2.70;;;18.70;69.90;;;;;;5000144;28;20030;-71
2021/07/19 08:45:09;;;;;;;5.15;2.28;;;18.70;70.80;;;;;;4998565;28;20037;-71
2021/07/19 08:47:36;;;;;;;5.35;1.63;;;18.70;69.20;;;;;;5000218;28;20057;-71
2021/07/19 08:50:02;;;;;;;7.53;2.05;;;18.70;69.20;;;;;;4999719;28;20034;-71
2021/07/19 08:52:28;;;;;;;7.80;2.70;;;18.70;69.70;;;;;;4998270;28;20076;-71
2021/07/19 08:54:56;;;;;;;5.00;2.03;;;18.60;70.00;;;;;;4999049;28;20033;-71
2021/07/19 08:57:23;;;;;;;6.50;1.77;;;18.70;70.10;;;;;;5013767;28;20058;-71
2021/07/19 08:59:49;;;;;;;7.82;2.75;;;18.60;70.60;;;;;;5014251;28;20477;-71
2021/07/19 09:02:15;;;;;;;4.93;2.30;;;18.80;70.50;;;;;;5001072;28;20037;-72
2021/07/19 09:04:42;;;;;;;5.47;2.00;;;18.90;69.80;;;;;;4999310;28;20034;-71
2021/07/19 09:07:08;;;;;;;4.10;1.90;;;18.90;69.80;;;;;;4999499;28;20068;-72
2021/07/19 09:09:34;;;;;;;4.22;2.80;;;19.00;69.70;;;;;;5002475;28;20068;-72
2021/07/19 09:12:04;;;;;;;7.47;3.50;;;19.00;70.80;;;;;;5001824;28;20113;-71
2021/07/19 09:14:31;;;;;;;5.00;2.72;;;19.30;70.90;;;;;;5000031;28;20049;-72
2021/07/19 09:16:56;;;;;;;6.32;2.08;;;19.50;70.10;;;;;;5001057;28;20057;-72
2021/07/19 09:19:24;;;;;;;8.65;3.30;;;19.60;69.40;;;;;;5001485;28;20027;-72
2021/07/19 09:22:10;;;;;;;9.65;3.08;;;19.70;69.80;;;;;;5018747;28;20019;-73
2021/07/19 09:24:37;;;;;;;5.20;3.35;;;19.80;68.30;;;;;;5005709;28;20040;-72
2021/07/19 09:27:03;;;;;;;6.85;2.63;;;19.90;69.30;;;;;;5002909;28;20053;-72
2021/07/19 09:29:36;;;;;;;5.65;3.22;;;19.90;68.80;;;;;;5001076;28;20056;-71
2021/07/19 09:32:02;;;;;;;14.02;3.25;;;19.90;68.70;;;;;;5000426;28;20497;-72
2021/07/19 09:34:31;;;;;;;8.60;2.65;;;19.90;68.40;;;;;;4997953;28;20030;-73
2021/07/19 09:36:57;;;;;;;6.82;2.75;;;19.90;67.50;;;;;;4998755;28;20053;-72
2021/07/19 09:39:23;;;;;;;5.18;3.17;;;19.80;67.80;;;;;;4999348;28;20496;-71
2021/07/19 09:41:49;;;;;;;7.28;2.90;;;19.70;67.90;;;;;;4999461;28;20022;-74
2021/07/19 09:44:15;;;;;;;6.15;2.47;;;19.70;67.30;;;;;;4999774;28;20037;-74
2021/07/19 09:46:41;;;;;;;5.15;2.90;;;19.60;67.60;;;;;;4998568;28;20038;-74
2021/07/19 09:49:06;;;;;;;4.88;2.75;;;19.50;68.10;;;;;;4999078;28;20508;-73
2021/07/19 09:51:35;;;;;;;8.60;3.30;;;19.30;68.30;;;;;;5000250;28;20092;-73
2021/07/19 09:54:11;;;;;;;7.38;3.35;;;19.20;68.50;;;;;;4998145;28;20038;-72
2021/07/19 09:56:38;;;;;;;9.73;3.40;;;19.20;69.30;;;;;;5014373;28;20040;-72
2021/07/19 09:59:13;;;;;;;6.88;3.08;;;19.20;69.30;;;;;;4999367;28;20019;-71
2021/07/19 10:01:42;;;;;;;6.53;2.38;;;19.20;69.30;;;;;;4999896;28;20029;-71
2021/07/19 10:04:08;;;;;;;5.78;3.25;;;19.20;69.60;;;;;;4999855;28;20045;-71
2021/07/19 10:06:36;;;;;;;11.00;3.60;;;19.20;69.80;;;;;;4999635;28;20512;-72
2021/07/19 10:09:05;;;;;;;6.55;3.40;;;19.30;69.70;;;;;;5001098;28;20103;-72
2021/07/19 10:11:32;;;;;;;8.70;2.72;;;19.40;69.60;;;;;;5003665;28;20117;-72
2021/07/19 10:13:59;;;;;;;11.95;2.88;;;19.60;68.00;;;;;;5004763;28;20113;-73
2021/07/19 10:16:28;;;;;;;7.38;2.88;;;19.60;67.80;;;;;;5003278;28;20041;-73
2021/07/19 10:18:54;;;;;;;6.28;3.03;;;19.70;67.60;;;;;;5002298;28;20505;-72
2021/07/19 10:21:22;;;;;;;5.00;3.28;;;19.80;68.00;;;;;;5002244;28;20125;-72
2021/07/19 10:23:48;;;;;;;6.93;2.85;;;19.70;67.70;;;;;;5002202;28;20025;-71
2021/07/19 10:26:13;;;;;;;12.35;3.80;;;19.70;68.10;;;;;;5001020;28;20022;-74
2021/07/19 10:28:39;;;;;;;6.07;4.13;;;19.70;69.90;;;;;;5003601;28;20090;-75
2021/07/19 10:31:05;;;;;;;7.13;3.35;;;19.80;69.50;;;;;;5003567;28;20513;-74
2021/07/19 10:33:32;;;;;;;8.18;4.82;;;19.80;68.30;;;;;;5001602;28;20046;-74
2021/07/19 10:36:01;;;;;;;11.35;3.30;;;19.80;68.20;;;;;;5002997;28;20556;-76
2021/07/19 10:38:30;;;;;;;9.98;3.65;;;19.90;69.10;;;;;;5003211;28;20037;-75
2021/07/19 10:41:00;;;;;;;6.85;3.35;;;19.90;68.80;;;;;;5000932;28;20168;-74
2021/07/19 10:43:28;;;;;;;8.15;2.92;;;19.90;68.80;;;;;;5001292;28;20041;-75
2021/07/19 10:45:54;;;;;;;5.70;3.67;;;20.00;69.10;;;;;;5001264;28;20062;-74
2021/07/19 10:48:31;;;;;;;11.05;3.85;;;20.20;68.90;;;;;;5002407;28;20072;-74
2021/07/19 10:51:12;;;;;;;4.15;2.72;;;20.20;67.30;;;;;;5002510;28;20504;-75
2021/07/19 10:53:38;;;;;;;5.30;2.95;;;20.10;67.60;;;;;;5003603;28;20493;-76
2021/07/19 10:56:06;;;;;;;4.45;2.47;;;20.10;67.60;;;;;;5003030;28;20034;-76
2021/07/19 10:58:45;;;;;;;7.05;2.60;;;20.10;68.00;;;;;;5001904;28;20701;-76
2021/07/19 11:01:28;;;;;;;6.65;2.78;;;20.30;68.10;;;;;;5002267;28;20061;-75
2021/07/19 11:03:57;;;;;;;5.60;3.30;;;20.40;67.10;;;;;;5002591;28;20026;-75
2021/07/19 11:06:32;;;;;;;5.82;3.00;;;20.50;67.30;;;;;;4999319;28;20049;-74
2021/07/19 11:08:59;;;;;;;7.35;3.00;;;20.80;67.40;;;;;;5000369;28;20031;-75
2021/07/19 11:11:33;;;;;;;3.75;2.50;;;20.90;65.70;;;;;;5002221;28;20305;-75
2021/07/19 11:14:02;;;;;;;3.70;3.05;;;21.10;66.50;;;;;;5002446;28;20072;-74
2021/07/19 11:16:42;;;;;;;4.97;2.97;;;21.40;64.60;;;;;;5004777;28;20522;-76
2021/07/19 11:19:08;;;;;;;6.60;2.72;;;21.60;64.50;;;;;;5001875;28;20040;-77
2021/07/19 11:21:34;;;;;;;10.23;2.97;;;21.60;62.60;;;;;;5001480;28;20022;-74
2021/07/19 11:24:17;;;;;;;6.15;3.03;;;21.40;63.20;;;;;;5001568;28;20029;-73
2021/07/19 11:26:49;;;;;;;9.10;3.30;;;21.20;63.70;;;;;;5002428;28;20033;-76
2021/07/19 11:29:29;;;;;;;7.72;2.83;;;21.10;63.80;;;;;;5001753;28;20030;-76
2021/07/19 11:32:04;;;;;;;7.10;3.05;;;21.10;64.40;;;;;;5002234;28;20057;-76
2021/07/19 11:34:30;;;;;;;7.05;3.47;;;21.30;64.50;;;;;;5001625;28;20121;-76
2021/07/19 11:36:56;;;;;;;8.98;3.65;;;21.50;62.30;;;;;;5001860;28;20045;-76
2021/07/19 11:39:22;;;;;;;6.13;2.88;;;21.50;63.60;;;;;;5000815;28;20889;-75
2021/07/19 11:42:01;;;;;;;5.55;2.80;;;21.50;62.90;;;;;;5001631;28;20022;-77
2021/07/19 11:44:27;;;;;;;5.05;4.00;;;21.50;63.20;;;;;;5000943;28;20042;-76
2021/07/19 11:46:56;;;;;;;4.43;2.55;;;21.40;62.60;;;;;;4999932;28;20038;-76
2021/07/19 11:49:23;;;;;;;7.18;3.33;;;21.40;63.20;;;;;;5000718;28;20041;-74
2021/07/19 11:51:49;;;;;;;9.75;3.38;;;21.50;63.50;;;;;;4999860;28;20068;-74
2021/07/19 11:54:15;;;;;;;5.53;3.10;;;21.50;62.90;;;;;;5001993;28;20029;-75
2021/07/19 11:56:55;;;;;;;6.00;2.55;;;21.30;62.10;;;;;;5000314;28;20041;-75
2021/07/19 11:59:28;;;;;;;7.85;3.28;;;21.20;61.60;;;;;;5000711;28;20101;-74
2021/07/19 12:01:58;;;;;;;4.45;2.97;;;21.20;62.40;;;;;;5000875;28;20037;-74
2021/07/19 12:04:38;;;;;;;7.55;3.78;;;21.20;62.90;;;;;;4999215;28;20080;-73
2021/07/19 12:07:05;;;;;;;10.13;3.53;;;21.30;62.00;;;;;;5001680;28;20030;-74
2021/07/19 12:09:31;;;;;;;7.00;4.28;;;21.40;61.40;;;;;;4999696;28;20121;-73
2021/07/19 12:11:57;;;;;;;4.70;2.53;;;21.50;61.40;;;;;;5001013;28;20632;-74
2021/07/19 12:14:23;;;;;;;5.93;2.90;;;21.60;61.30;;;;;;5015801;28;20038;-74
2021/07/19 12:16:48;;;;;;;4.55;3.00;;;21.80;61.00;;;;;;5000810;28;20041;-75
2021/07/19 12:19:18;;;;;;;7.75;3.20;;;22.00;60.40;;;;;;5000483;28;20027;-75
2021/07/19 12:21:47;;;;;;;8.20;3.47;;;22.10;59.10;;;;;;5001067;28;20021;-75
2021/07/19 12:24:16;;;;;;;7.30;3.80;;;22.10;59.60;;;;;;5001495;28;20033;-75
2021/07/19 12:26:45;;;;;;;5.07;3.15;;;22.00;59.50;;;;;;5000499;28;20054;-75
2021/07/19 12:29:12;;;;;;;5.30;3.65;;;22.00;59.40;;;;;;5000460;28;20033;-75
2021/07/19 12:31:48;;;;;;;5.10;3.30;;;21.90;59.50;;;;;;4999586;28;20027;-76
2021/07/19 12:34:16;;;;;;;4.82;2.95;;;21.80;59.70;;;;;;5000257;28;20521;-76
2021/07/19 12:36:48;;;;;;;5.72;3.40;;;21.80;60.30;;;;;;5000026;28;20029;-73
2021/07/19 12:39:15;;;;;;;10.27;6.00;;;21.70;58.80;;;;;;4999960;28;20056;-76
2021/07/19 12:41:41;;;;;;;18.75;12.50;;;21.60;59.70;;;;;;5000581;28;20516;-76
2021/07/19 12:44:11;;;;;;;11.90;8.85;;;21.60;59.20;;;;;;5000490;28;20034;-76
2021/07/19 12:46:45;;;;;;;11.70;4.97;;;21.70;59.70;;;;;;4998336;28;20124;-78